Main page
METAR-TAF:

METAR-TAF

Airports :

Wick Airport

Wick, Scotland

latitude: 58-27N, longitude: 003-05W, elevation: 39 m

Current weather observation

The report was made 22 minutes ago, at 05:20 UTC
Wind 10 kt from the South/Southeast
Temperature 15°C
Humidity 88%
Pressure 1002 hPa
Visibility 10 km or more

METAR: EGPC 260520Z AUTO 15010KT 9999 FEW037/// 15/13 Q1002

Time: 06:42 (05:42 UTC)

Forecast

The report was made 42 minutes ago, at 05:00 UTC
Forecast valid from 26 at 06 UTC to 26 at 15 UTC
Wind 12 kt from the South/Southeast
Visibility 10 km or more
Few clouds at a height of 3500 ft
Probability 40% :
Temporary
from 26 at 06 UTC to 26 at 09 UTC
Wind 15 kt from the South with gusts up to 28 kt
Becoming
from 26 at 09 UTC to 26 at 12 UTC
Wind 18 kt from the South/Southeast with gusts up to 32 kt

TAF: EGPC 260500Z 2606/2615 16012KT 9999 FEW035 PROB40 TEMPO 2606/2609 17015G28KT BECMG 2609/2612 16018G32KT

Weather observations and forecasts of more than 4000 airports (METAR and TAF reports).

The available stations are represented by yellow and red dots on the map.

Hover mouse over dot to see the name of the station.

Then click to see weather observations and forecasts.

To change the map : click on the green buttons with a black cross to zoom in, on the green button with a dash to zoom out, or on the green arrows for adjacent maps.


METAR-TAF: